This is the latest recevied weather packets stored in our database for station/object N4AR. If no packets are shown the sender has not sent any weather packets the latest 10 day(s).
| Time | Temp. | Humidity | Pressure | Rain* | Wind** | Luminosity | Snow |
|---|---|---|---|---|---|---|---|
| 1777576300 | 22.22° C | 56% | 1008.9 hPa | 0 mm | - | 332 W/m² | - |
| 1777575997 | 22.22° C | 56% | 1008.7 hPa | 0 mm | - | 231 W/m² | - |
| 1777575693 | 22.78° C | 52% | 1008.7 hPa | 0 mm | - | 688 W/m² | - |
| 1777575388 | 22.22° C | 53% | 1008.8 hPa | 0 mm | - | 916 W/m² | - |
| 1777575085 | 21.11° C | 57% | 1008.9 hPa | 0 mm | - | 873 W/m² | - |
| 1777574781 | 20.56° C | 56% | 1008.9 hPa | 0 mm | - | 902 W/m² | - |
| 1777574479 | 20.56° C | 59% | 1009.2 hPa | 0 mm | - | 379 W/m² | - |
| 1777574175 | 21.67° C | 54% | 1009.3 hPa | 0 mm | - | 174 W/m² | - |
| 1777573870 | 22.22° C | 54% | 1009.1 hPa | 0 mm | - | 275 W/m² | - |
| 1777573565 | 22.22° C | 54% | 1009.1 hPa | 0 mm | - | 256 W/m² | - |
| 1777573261 | 21.67° C | 54% | 1009.1 hPa | 0 mm | - | 295 W/m² | - |
| 1777572957 | 21.67° C | 53% | 1009.1 hPa | 0 mm | - | 991 W/m² | - |
| 1777572654 | 22.22° C | 52% | 1009.3 hPa | 0 mm | - | 253 W/m² | - |
| 1777572353 | 21.67° C | 53% | 1009.3 hPa | 0 mm | - | 967 W/m² | - |
| 1777572050 | 20.56° C | 62% | 1009.4 hPa | 0 mm | - | 961 W/m² | - |
| 1777571749 | 20.56° C | 58% | 1009.6 hPa | 0 mm | - | 247 W/m² | - |
| 1777571448 | 20° C | 60% | 1009.7 hPa | 0 mm | - | 411 W/m² | - |
| 1777571144 | 20° C | 61% | 1009.7 hPa | 0 mm | - | 684 W/m² | - |
| 1777570839 | 20.56° C | 58% | 1009.9 hPa | 0 mm | - | 244 W/m² | - |
| 1777570536 | 20.56° C | 59% | 1009.9 hPa | 0 mm | - | 811 W/m² | - |
| 1777570233 | 20° C | 59% | 1009.9 hPa | 0 mm | - | 987 W/m² | - |
| 1777569927 | 19.44° C | 61% | 1009.7 hPa | 0 mm | - | 400 W/m² | - |
| 1777569623 | 19.44° C | 64% | 1009.9 hPa | 0 mm | - | 434 W/m² | - |
| 1777569320 | 18.33° C | 68% | 1009.9 hPa | 0 mm | - | 433 W/m² | - |
| 1777569016 | 18.89° C | 68% | 1009.9 hPa | 0 mm | - | 182 W/m² | - |
* Rain latest hour (hover to see other rain measurements)
** Current wind speed in m/s (hover to see current wind gust speed)